| time (UTC) | temp F | wind direction | speed MPH | gust MPH | rain 1hr in | rain 24hr in | rain mn in | humidity % | barometer mb |
| 20260502181207 | 58 | 240 | 0.0 | 0.0 | 0.07 | 0.66 | 0.66 | 82 | 1013.4 |
| 20260502180705 | 58 | 240 | 0.0 | 0.0 | 0.07 | 0.65 | 0.65 | 82 | 1013.4 |
| 20260502180205 | 58 | 240 | 0.0 | 0.0 | 0.07 | 0.65 | 0.65 | 82 | 1013.5 |
| 20260502170205 | 66 | 125 | 1.0 | 5.0 | 0.10 | 0.57 | 0.57 | 81 | 1013.3 |
| 20260502164204 | 66 | 125 | 2.0 | 5.0 | 0.11 | 0.54 | 0.54 | 81 | 1012.9 |
| 20260502163705 | 66 | 125 | 2.0 | 5.0 | 0.10 | 0.53 | 0.53 | 81 | 1012.9 |
| 20260502163205 | 66 | 125 | 2.0 | 5.0 | 0.11 | 0.53 | 0.53 | 81 | 1013.1 |
| 20260502162705 | 66 | 125 | 2.0 | 5.0 | 0.10 | 0.51 | 0.51 | 81 | 1013.3 |
| 20260502161705 | 67 | 125 | 0.0 | 0.0 | 0.10 | 0.50 | 0.50 | 81 | 1013.4 |
| 20260502152205 | 69 | 251 | 0.0 | 1.0 | 0.13 | 0.40 | 0.40 | 77 | 1013.9 |
| 20260502151705 | 69 | 251 | 0.0 | 1.0 | 0.13 | 0.39 | 0.39 | 77 | 1014.0 |
| 20260502151205 | 69 | 251 | 0.0 | 0.0 | 0.13 | 0.38 | 0.38 | 76 | 1014.1 |
| 20260502150705 | 69 | 251 | 0.0 | 0.0 | 0.15 | 0.38 | 0.38 | 76 | 1014.2 |
| 20260502150205 | 69 | 251 | 0.0 | 0.0 | 0.14 | 0.36 | 0.36 | 76 | 1014.3 |
| 20260502130707 | 65 | 159 | 0.0 | 0.0 | 0.05 | 0.05 | 0.05 | 79 | 1015.8 |
| 20260502130205 | 65 | 160 | 0.0 | 6.0 | 0.04 | 0.04 | 0.04 | 79 | 1016.0 |
| 20260502123705 | 73 | 257 | 2.0 | 6.0 | 0.00 | 0.00 | 0.00 | 56 | 1015.9 |
| 20260502123205 | 74 | 259 | 1.0 | 4.0 | 0.00 | 0.00 | 0.00 | 54 | 1015.8 |
| 20260502122705 | 74 | 259 | 0.0 | 0.0 | 0.00 | 0.00 | 0.00 | 53 | 1015.8 |
| 20260502122206 | 74 | 259 | 0.0 | 0.0 | 0.00 | 0.00 | 0.00 | 53 | 1015.9 |
| 20260502121705 | 75 | 237 | 0.0 | 0.0 | 0.00 | 0.00 | 0.00 | 52 | 1016.0 |
| 20260502121205 | 74 | 244 | 0.0 | 0.0 | 0.00 | 0.00 | 0.00 | 54 | 1016.0 |
| 20260502120705 | 74 | 243 | 0.0 | 0.0 | 0.00 | 0.00 | 0.00 | 54 | 1016.1 |
| 20260502120205 | 74 | 239 | 0.0 | 5.0 | 0.00 | 0.00 | 0.00 | 53 | 1016.1 |
| 20260502115704 | 74 | 247 | 1.0 | 7.0 | 0.00 | 0.00 | 0.00 | 57 | 1016.1 |
| 20260502114706 | 74 | 246 | 2.0 | 10.0 | 0.00 | 0.00 | 0.00 | 55 | 1016.3 |
| 20260502114206 | 74 | 246 | 3.0 | 10.0 | 0.00 | 0.00 | 0.00 | 55 | 1016.3 |
| 20260502113705 | 74 | 257 | 2.0 | 9.0 | 0.00 | 0.00 | 0.00 | 56 | 1016.4 |
| 20260502113205 | 74 | 246 | 2.0 | 9.0 | 0.00 | 0.00 | 0.00 | 53 | 1016.4 |
| 20260502112705 | 74 | 246 | 3.0 | 9.0 | 0.00 | 0.00 | 0.00 | 53 | 1016.4 |
| 20260502111705 | 74 | 244 | 2.0 | 8.0 | 0.00 | 0.00 | 0.00 | 52 | 1016.6 |
| 20260502111205 | 74 | 245 | 1.0 | 7.0 | 0.00 | 0.00 | 0.00 | 52 | 1016.6 |
| 20260502110705 | 74 | 245 | 0.0 | 4.0 | 0.00 | 0.00 | 0.00 | 53 | 1016.6 |
| 20260502110205 | 74 | 246 | 0.0 | 5.0 | 0.00 | 0.00 | 0.00 | 53 | 1016.7 |
| 20260502105705 | 74 | 246 | 1.0 | 8.0 | 0.00 | 0.00 | 0.00 | 55 | 1016.7 |
| 20260502104706 | 73 | 245 | 2.0 | 7.0 | 0.00 | 0.00 | 0.00 | 55 | 1016.8 |
| 20260502104205 | 73 | 248 | 2.0 | 7.0 | 0.00 | 0.00 | 0.00 | 55 | 1016.9 |
| 20260502103705 | 73 | 248 | 2.0 | 9.0 | 0.00 | 0.00 | 0.00 | 54 | 1016.9 |
| 20260502102705 | 72 | 266 | 4.0 | 11.0 | 0.00 | 0.00 | 0.00 | 55 | 1017.1 |
| 20260502102205 | 72 | 256 | 3.0 | 11.0 | 0.00 | 0.00 | 0.00 | 56 | 1017.1 |
| 20260502101206 | 72 | 251 | 4.0 | 10.0 | 0.00 | 0.00 | 0.00 | 56 | 1017.2 |
| 20260502100706 | 72 | 242 | 3.0 | 10.0 | 0.00 | 0.00 | 0.00 | 55 | 1017.2 |
| 20260502100206 | 72 | 233 | 2.0 | 9.0 | 0.00 | 0.00 | 0.00 | 56 | 1017.3 |
| 20260502091224 | 70 | 236 | 2.0 | 11.0 | 0.00 | 0.00 | 0.00 | 56 | 1017.6 |
| 20260502090705 | 70 | 236 | 3.0 | 10.0 | 0.00 | 0.00 | 0.00 | 55 | 1017.5 |
| 20260502090222 | 70 | 233 | 1.0 | 10.0 | 0.00 | 0.00 | 0.00 | 55 | 1017.6 |
| 20260502071207 | 65 | 223 | 0.0 | 0.0 | 0.00 | 0.00 | 0.00 | 60 | 1017.8 |
| 20260502070705 | 65 | 223 | 0.0 | 0.0 | 0.00 | 0.00 | 0.00 | 60 | 1017.9 |
| 20260502070205 | 65 | 213 | 0.0 | 0.0 | 0.00 | 0.00 | 0.00 | 60 | 1018.0 |
| 20260502065205 | 64 | 217 | 0.0 | 0.0 | 0.00 | 0.00 | 0.00 | 60 | 1017.9 |
| 20260502064705 | 64 | 216 | 0.0 | 0.0 | 0.00 | 0.00 | 0.00 | 60 | 1018.0 |
| 20260502063705 | 64 | 182 | 0.0 | 0.0 | 0.00 | 0.00 | 0.00 | 58 | 1017.9 |
| 20260502063205 | 64 | 180 | 0.0 | 0.0 | 0.00 | 0.00 | 0.00 | 56 | 1017.9 |
| 20260502062705 | 63 | 180 | 0.0 | 0.0 | 0.00 | 0.00 | 0.00 | 55 | 1017.9 |
| 20260502062205 | 63 | 180 | 0.0 | 0.0 | 0.00 | 0.00 | 0.00 | 54 | 1017.9 |
| 20260502061710 | 63 | 180 | 0.0 | 0.0 | 0.00 | 0.00 | 0.00 | 53 | 1017.9 |
| 20260502061205 | 63 | 177 | 0.0 | 0.0 | 0.00 | 0.00 | 0.00 | 53 | 1017.9 |
| 20260502060706 | 63 | 176 | 0.0 | 0.0 | 0.00 | 0.00 | 0.00 | 52 | 1017.9 |
| 20260502060205 | 63 | 176 | 0.0 | 0.0 | 0.00 | 0.00 | 0.00 | 52 | 1017.8 |
| 20260502055708 | 63 | 176 | 0.0 | 0.0 | 0.00 | 0.00 | 0.00 | 51 | 1017.9 |
| 20260502055205 | 63 | 176 | 0.0 | 0.0 | 0.00 | 0.00 | 0.00 | 51 | 1017.9 |
| 20260502054705 | 63 | 176 | 0.0 | 0.0 | 0.00 | 0.00 | 0.00 | 51 | 1017.9 |
| 20260502054205 | 63 | 175 | 0.0 | 0.0 | 0.00 | 0.00 | 0.00 | 51 | 1017.8 |
| 20260502053705 | 62 | 175 | 0.0 | 0.0 | 0.00 | 0.00 | 0.00 | 51 | 1017.9 |
| 20260502053205 | 62 | 175 | 0.0 | 0.0 | 0.00 | 0.00 | 0.00 | 51 | 1017.9 |
| 20260502052705 | 62 | 174 | 0.0 | 0.0 | 0.00 | 0.00 | 0.00 | 51 | 1017.9 |
| 20260502051705 | 61 | 173 | 0.0 | 0.0 | 0.00 | 0.00 | 0.00 | 52 | 1017.8 |
| 20260502051205 | 60 | 173 | 0.0 | 0.0 | 0.00 | 0.00 | 0.00 | 52 | 1017.7 |
| 20260502050208 | 58 | 173 | 0.0 | 0.0 | 0.00 | 0.00 | 0.00 | 53 | 1017.7 |
| 20260502045206 | 57 | 173 | 0.0 | 0.0 | 0.00 | 0.00 | 0.00 | 54 | 1017.6 |
| 20260502044705 | 56 | 173 | 0.0 | 0.0 | 0.00 | 0.00 | 0.00 | 55 | 1017.6 |
| 20260502044205 | 56 | 173 | 0.0 | 0.0 | 0.00 | 0.00 | 0.00 | 55 | 1017.5 |
| 20260502043705 | 55 | 173 | 0.0 | 0.0 | 0.00 | 0.00 | 0.00 | 56 | 1017.6 |
| 20260502043208 | 55 | 173 | 0.0 | 0.0 | 0.00 | 0.00 | 0.00 | 56 | 1017.6 |
| 20260502042705 | 55 | 173 | 0.0 | 0.0 | 0.00 | 0.00 | 0.00 | 57 | 1017.7 |
| 20260502042205 | 54 | 173 | 0.0 | 0.0 | 0.00 | 0.00 | 0.00 | 58 | 1017.7 |
| 20260502041705 | 53 | 173 | 0.0 | 0.0 | 0.00 | 0.00 | 0.00 | 59 | 1017.7 |
| 20260502041205 | 53 | 173 | 0.0 | 0.0 | 0.00 | 0.00 | 0.00 | 61 | 1017.7 |
| 20260502040705 | 53 | 173 | 0.0 | 0.0 | 0.00 | 0.00 | 0.00 | 62 | 1017.8 |
| 20260502040205 | 53 | 173 | 0.0 | 0.0 | 0.00 | 0.00 | 0.00 | 62 | 1017.8 |
| 20260502035705 | 52 | 173 | 0.0 | 0.0 | 0.00 | 0.00 | 0.00 | 62 | 1017.8 |
| 20260502035205 | 52 | 173 | 0.0 | 0.0 | 0.00 | 0.00 | 0.00 | 63 | 1017.8 |
| 20260502034707 | 51 | 173 | 0.0 | 0.0 | 0.00 | 0.00 | 0.00 | 64 | 1017.8 |
| 20260502034206 | 51 | 173 | 0.0 | 0.0 | 0.00 | 0.00 | 0.00 | 65 | 1017.7 |
| 20260502033712 | 50 | 173 | 0.0 | 0.0 | 0.00 | 0.00 | 0.00 | 66 | 1017.7 |
| 20260502033205 | 50 | 173 | 0.0 | 0.0 | 0.00 | 0.00 | 0.00 | 66 | 1017.8 |
| 20260502032705 | 49 | 173 | 0.0 | 0.0 | 0.00 | 0.00 | 0.00 | 67 | 1017.9 |
| 20260502032205 | 49 | 173 | 0.0 | 0.0 | 0.00 | 0.00 | 0.00 | 67 | 1017.9 |
| 20260502031705 | 49 | 173 | 0.0 | 0.0 | 0.00 | 0.00 | 0.00 | 67 | 1017.9 |
| 20260502031205 | 49 | 173 | 0.0 | 0.0 | 0.00 | 0.00 | 0.00 | 67 | 1017.9 |
| 20260502030734 | 49 | 173 | 0.0 | 0.0 | 0.00 | 0.00 | 0.00 | 68 | 1017.9 |
| 20260502030228 | 49 | 173 | 0.0 | 0.0 | 0.00 | 0.00 | 0.00 | 68 | 1018.0 |
| 20260502025704 | 49 | 173 | 0.0 | 0.0 | 0.00 | 0.00 | 0.00 | 68 | 1018.0 |
| 20260502025206 | 49 | 173 | 0.0 | 0.0 | 0.00 | 0.00 | 0.00 | 68 | 1018.1 |
| 20260502024705 | 49 | 173 | 0.0 | 0.0 | 0.00 | 0.00 | 0.00 | 68 | 1018.1 |
| 20260502024206 | 49 | 173 | 0.0 | 0.0 | 0.00 | 0.00 | 0.00 | 68 | 1018.1 |
| 20260502023207 | 49 | 173 | 0.0 | 0.0 | 0.00 | 0.00 | 0.00 | 68 | 1018.3 |
| 20260502022705 | 49 | 173 | 0.0 | 0.0 | 0.00 | 0.00 | 0.00 | 68 | 1018.3 |
| 20260502022205 | 49 | 173 | 0.0 | 0.0 | 0.00 | 0.00 | 0.00 | 68 | 1018.3 |
| 20260502021705 | 49 | 173 | 0.0 | 0.0 | 0.00 | 0.00 | 0.00 | 67 | 1018.4 |
| 20260502021221 | 49 | 173 | 0.0 | 0.0 | 0.00 | 0.00 | 0.00 | 67 | 1018.4 |
| 20260502020730 | 49 | 173 | 0.0 | 0.0 | 0.00 | 0.00 | 0.00 | 67 | 1018.5 |
| 20260502020207 | 49 | 173 | 0.0 | 0.0 | 0.00 | 0.00 | 0.00 | 67 | 1018.6 |
| 20260502015705 | 49 | 173 | 0.0 | 0.0 | 0.00 | 0.00 | 0.00 | 66 | 1018.6 |
| 20260502015205 | 50 | 173 | 0.0 | 0.0 | 0.00 | 0.00 | 0.00 | 66 | 1018.7 |
| 20260502014706 | 50 | 173 | 0.0 | 0.0 | 0.00 | 0.00 | 0.00 | 65 | 1018.7 |
| 20260502014208 | 50 | 173 | 0.0 | 0.0 | 0.00 | 0.00 | 0.00 | 64 | 1018.7 |
| 20260502013705 | 50 | 173 | 0.0 | 0.0 | 0.00 | 0.00 | 0.00 | 63 | 1018.8 |
| 20260502012705 | 51 | 173 | 0.0 | 0.0 | 0.00 | 0.00 | 0.00 | 62 | 1018.9 |
| 20260502012206 | 51 | 173 | 0.0 | 0.0 | 0.00 | 0.00 | 0.00 | 60 | 1018.8 |
| 20260502011705 | 52 | 173 | 0.0 | 0.0 | 0.00 | 0.00 | 0.00 | 59 | 1018.8 |
| 20260502011205 | 52 | 173 | 0.0 | 0.0 | 0.00 | 0.00 | 0.00 | 58 | 1018.8 |
| 20260502010705 | 53 | 173 | 0.0 | 0.0 | 0.00 | 0.00 | 0.00 | 57 | 1018.9 |
| 20260502010205 | 53 | 173 | 0.0 | 0.0 | 0.00 | 0.00 | 0.00 | 57 | 1018.9 |
| 20260502005705 | 53 | 173 | 0.0 | 0.0 | 0.00 | 0.00 | 0.00 | 55 | 1018.9 |
| 20260502005205 | 53 | 173 | 0.0 | 0.0 | 0.00 | 0.00 | 0.00 | 54 | 1018.9 |
| 20260502004205 | 54 | 173 | 0.0 | 0.0 | 0.00 | 0.00 | 0.00 | 52 | 1018.9 |
| 20260502003705 | 55 | 173 | 0.0 | 0.0 | 0.00 | 0.00 | 0.00 | 51 | 1019.0 |
| 20260502003205 | 55 | 173 | 0.0 | 0.0 | 0.00 | 0.00 | 0.00 | 51 | 1019.0 |
| 20260502002706 | 56 | 173 | 0.0 | 0.0 | 0.00 | 0.00 | 0.00 | 50 | 1019.0 |
| 20260502002205 | 56 | 173 | 0.0 | 0.0 | 0.00 | 0.00 | 0.00 | 50 | 1019.1 |
| 20260502001206 | 57 | 173 | 0.0 | 0.0 | 0.00 | 0.00 | 0.00 | 49 | 1019.2 |
| 20260502000705 | 57 | 173 | 0.0 | 0.0 | 0.00 | 0.00 | 0.00 | 48 | 1019.3 |
| 20260502000205 | 57 | 173 | 0.0 | 0.0 | 0.00 | 0.00 | 0.00 | 47 | 1019.4 |
| 20260501235705 | 57 | 173 | 0.0 | 0.0 | 0.00 | 0.00 | 0.00 | 47 | 1019.5 |
| 20260501235205 | 57 | 173 | 0.0 | 0.0 | 0.00 | 0.00 | 0.00 | 47 | 1019.6 |
| 20260501234205 | 57 | 173 | 0.0 | 0.0 | 0.00 | 0.00 | 0.00 | 47 | 1019.7 |
| 20260501233705 | 58 | 173 | 0.0 | 0.0 | 0.00 | 0.00 | 0.00 | 46 | 1019.8 |
| 20260501233205 | 58 | 173 | 0.0 | 0.0 | 0.00 | 0.00 | 0.00 | 46 | 1019.8 |
| 20260501232706 | 58 | 173 | 0.0 | 0.0 | 0.00 | 0.00 | 0.00 | 46 | 1019.9 |
| 20260501232205 | 58 | 173 | 0.0 | 0.0 | 0.00 | 0.00 | 0.00 | 45 | 1019.9 |
| 20260501231705 | 58 | 173 | 0.0 | 0.0 | 0.00 | 0.00 | 0.00 | 45 | 1020.0 |
| 20260501231205 | 59 | 173 | 0.0 | 0.0 | 0.00 | 0.00 | 0.00 | 44 | 1020.0 |
| 20260501230705 | 59 | 173 | 0.0 | 0.0 | 0.00 | 0.00 | 0.00 | 44 | 1020.0 |
| 20260501230230 | 59 | 173 | 0.0 | 0.0 | 0.00 | 0.00 | 0.00 | 45 | 1020.1 |
| 20260501225205 | 58 | 173 | 0.0 | 0.0 | 0.00 | 0.00 | 0.00 | 45 | 1020.1 |
| 20260501224706 | 58 | 173 | 0.0 | 0.0 | 0.00 | 0.00 | 0.00 | 45 | 1020.2 |
| 20260501224207 | 58 | 173 | 0.0 | 0.0 | 0.00 | 0.00 | 0.00 | 46 | 1020.2 |
| 20260501223705 | 58 | 173 | 0.0 | 0.0 | 0.00 | 0.00 | 0.00 | 46 | 1020.1 |
| 20260501223205 | 58 | 173 | 0.0 | 0.0 | 0.00 | 0.00 | 0.00 | 47 | 1020.1 |
| 20260501222705 | 58 | 173 | 0.0 | 0.0 | 0.00 | 0.00 | 0.00 | 47 | 1020.2 |
| 20260501222206 | 58 | 173 | 0.0 | 0.0 | 0.00 | 0.00 | 0.00 | 46 | 1020.2 |
| 20260501220205 | 59 | 173 | 0.0 | 0.0 | 0.00 | 0.00 | 0.00 | 45 | 1020.2 |
| 20260501215206 | 60 | 173 | 0.0 | 0.0 | 0.00 | 0.00 | 0.00 | 44 | 1020.2 |
| 20260501214205 | 61 | 173 | 0.0 | 0.0 | 0.00 | 0.00 | 0.00 | 42 | 1020.2 |
| 20260501213705 | 61 | 173 | 0.0 | 0.0 | 0.00 | 0.00 | 0.00 | 42 | 1020.2 |
| 20260501213205 | 61 | 173 | 0.0 | 0.0 | 0.00 | 0.00 | 0.00 | 41 | 1020.2 |
| 20260501212705 | 61 | 173 | 0.0 | 0.0 | 0.00 | 0.00 | 0.00 | 41 | 1020.2 |
| 20260501211705 | 61 | 173 | 0.0 | 0.0 | 0.00 | 0.00 | 0.00 | 41 | 1020.2 |
| 20260501205205 | 63 | 173 | 0.0 | 0.0 | 0.00 | 0.00 | 0.00 | 38 | 1020.3 |
| 20260501204707 | 63 | 173 | 0.0 | 0.0 | 0.00 | 0.00 | 0.00 | 38 | 1020.3 |
| 20260501204206 | 64 | 173 | 0.0 | 0.0 | 0.00 | 0.00 | 0.00 | 37 | 1020.2 |
| 20260501203705 | 64 | 173 | 0.0 | 0.0 | 0.00 | 0.00 | 0.00 | 37 | 1020.3 |
| 20260501203205 | 64 | 173 | 0.0 | 0.0 | 0.00 | 0.00 | 0.00 | 37 | 1020.3 |
| 20260501202705 | 64 | 174 | 0.0 | 0.0 | 0.00 | 0.00 | 0.00 | 36 | 1020.3 |
| 20260501202205 | 64 | 173 | 0.0 | 0.0 | 0.00 | 0.00 | 0.00 | 37 | 1020.2 |
| 20260501201705 | 65 | 174 | 0.0 | 0.0 | 0.00 | 0.00 | 0.00 | 36 | 1020.2 |
| 20260501201205 | 65 | 173 | 0.0 | 0.0 | 0.00 | 0.00 | 0.00 | 36 | 1020.2 |
| 20260501200205 | 65 | 174 | 0.0 | 0.0 | 0.00 | 0.00 | 0.00 | 35 | 1020.2 |
| 20260501195705 | 66 | 174 | 0.0 | 0.0 | 0.00 | 0.00 | 0.00 | 35 | 1020.2 |
| 20260501194705 | 66 | 174 | 0.0 | 0.0 | 0.00 | 0.00 | 0.00 | 34 | 1020.1 |
| 20260501194206 | 67 | 174 | 0.0 | 0.0 | 0.00 | 0.00 | 0.00 | 34 | 1020.1 |
| 20260501193205 | 67 | 174 | 0.0 | 0.0 | 0.00 | 0.00 | 0.00 | 33 | 1020.1 |
| 20260501192705 | 67 | 173 | 0.0 | 0.0 | 0.00 | 0.00 | 0.00 | 32 | 1020.1 |
| 20260501192205 | 67 | 174 | 0.0 | 0.0 | 0.00 | 0.00 | 0.00 | 31 | 1020.0 |
| 20260501191705 | 68 | 174 | 0.0 | 0.0 | 0.00 | 0.00 | 0.00 | 31 | 1019.9 |
| 20260501191205 | 68 | 174 | 0.0 | 0.0 | 0.00 | 0.00 | 0.00 | 30 | 1019.9 |
| 20260501190705 | 69 | 174 | 0.0 | 0.0 | 0.00 | 0.00 | 0.00 | 30 | 1019.9 |
| 20260501185705 | 70 | 174 | 0.0 | 3.0 | 0.00 | 0.00 | 0.00 | 29 | 1019.8 |
| 20260501185205 | 70 | 175 | 1.0 | 4.0 | 0.00 | 0.00 | 0.00 | 28 | 1019.8 |
| 20260501184705 | 70 | 175 | 1.0 | 4.0 | 0.00 | 0.00 | 0.00 | 28 | 1019.7 |
| 20260501184207 | 71 | 175 | 1.0 | 4.0 | 0.00 | 0.00 | 0.00 | 28 | 1019.7 |
| 20260501183706 | 71 | 175 | 2.0 | 4.0 | 0.00 | 0.00 | 0.00 | 27 | 1019.7 |
| 20260501183205 | 72 | 175 | 1.0 | 8.0 | 0.00 | 0.00 | 0.00 | 26 | 1019.7 |
| 20260501182711 | 72 | 175 | 1.0 | 8.0 | 0.00 | 0.00 | 0.00 | 26 | 1019.7 |
| 20260501182206 | 72 | 175 | 2.0 | 8.0 | 0.00 | 0.00 | 0.00 | 26 | 1019.7 |
| 20260501181706 | 73 | 175 | 2.0 | 7.0 | 0.00 | 0.00 | 0.00 | 25 | 1019.6 |